Time;durP1;ratioP1;P1;durP2;ratioP2;P2;SDS_P1;SDS_P2;PMS_P1;PMS_P2;Temp;Humidity;BMP_temperature;BMP_pressure;BME280_temperature;BME280_humidity;BME280_pressure;Samples;Min_cycle;Max_cycle;Signal;HPM_P1;HPM_P2
2024/01/09 00:01:02;;;;;;;11.23;4.60;;;;;;;-5.13;64.97;103224.91;4958960;29;20114;-82
2024/01/09 00:10:39;;;;;;;10.45;4.25;;;;;;;-5.29;65.54;103218.50;4898627;29;20048;-82
2024/01/09 00:33:50;;;;;;;10.88;4.57;;;;;;;-5.16;66.48;103238.16;4881026;29;20048;-82
2024/01/09 00:36:29;;;;;;;9.65;4.20;;;;;;;-5.36;66.40;103200.09;4822654;29;20065;-82
2024/01/09 00:43:22;;;;;;;11.18;4.53;;;;;;;-5.19;66.97;103232.84;4822780;29;20139;-82
2024/01/09 01:02:10;;;;;;;10.75;4.30;;;;;;;-5.51;67.17;103204.69;5347470;23;20102;-82
2024/01/09 01:05:05;;;;;;;10.38;4.45;;;;;;;-5.53;66.88;103199.50;4936497;29;20075;-83
2024/01/09 01:07:42;;;;;;;9.55;4.20;;;;;;;-5.38;67.44;103243.00;4937259;29;20047;-82
2024/01/09 01:13:05;;;;;;;10.68;4.22;;;;;;;-5.39;67.82;103228.56;5007853;23;20055;-82
2024/01/09 01:15:30;;;;;;;10.38;4.30;;;;;;;-5.41;67.95;103232.59;4975800;28;20126;-82
2024/01/09 01:17:58;;;;;;;9.57;4.00;;;;;;;-5.38;67.45;103239.56;4974553;28;20031;-83
2024/01/09 01:20:23;;;;;;;10.32;4.15;;;;;;;-5.48;67.43;103232.81;4975434;28;20057;-82
2024/01/09 01:22:51;;;;;;;11.13;4.40;;;;;;;-5.46;68.23;103239.78;4975613;28;20472;-82
2024/01/09 01:29:01;;;;;;;11.10;4.50;;;;;;;-5.64;67.55;103216.25;4914757;29;20156;-82
2024/01/09 01:31:38;;;;;;;11.65;4.13;;;;;;;-5.62;67.68;103209.69;4914995;29;20442;-82
2024/01/09 01:34:29;;;;;;;9.73;4.07;;;;;;;-5.46;67.91;103244.84;4915716;29;20024;-82
2024/01/09 02:28:52;;;;;;;11.00;4.32;;;;;;;-5.70;68.98;103238.50;4973063;23;20064;-82
2024/01/09 02:31:18;;;;;;;9.27;3.90;;;;;;;-5.83;68.97;103212.84;4974433;28;20039;-82
2024/01/09 02:37:49;;;;;;;10.50;4.10;;;;;;;-5.96;69.31;103203.25;4963278;28;20042;-82
2024/01/09 02:40:29;;;;;;;9.13;3.80;;;;;;;-5.84;69.43;103216.13;4858548;29;20426;-82
2024/01/09 02:52:57;;;;;;;11.55;4.60;;;;;;;-6.03;70.28;103200.94;4896056;29;20039;-82
2024/01/09 02:58:32;;;;;;;12.52;4.45;;;;;;;-6.08;70.35;103193.81;4858726;29;20440;-82
2024/01/09 03:00:58;;;;;;;12.43;4.55;;;;;;;-6.03;70.68;103189.22;4858455;29;20037;-82
2024/01/09 03:03:23;;;;;;;11.57;4.22;;;;;;;-5.95;70.66;103207.56;4857642;29;20034;-82
2024/01/09 03:06:06;;;;;;;11.07;4.25;;;;;;;-6.02;70.60;103192.63;4858090;29;20065;-82
2024/01/09 03:08:34;;;;;;;10.30;4.20;;;;;;;-5.97;70.99;103206.53;4894275;29;20036;-82
2024/01/09 03:11:08;;;;;;;11.70;4.43;;;;;;;-6.11;71.14;103180.94;4894789;29;20040;-82
2024/01/09 03:14:07;;;;;;;11.45;4.22;;;;;;;-5.95;71.39;103216.03;4895460;29;20029;-82
2024/01/09 03:16:41;;;;;;;11.35;3.90;;;;;;;-6.10;71.57;103182.72;4953403;29;20031;-82
2024/01/09 03:19:42;;;;;;;11.38;4.20;;;;;;;-5.98;71.67;103218.28;4954529;29;20020;-82
2024/01/09 03:22:11;;;;;;;10.60;4.20;;;;;;;-6.19;71.95;103179.31;4968389;28;20456;-82
2024/01/09 03:24:48;;;;;;;9.73;4.28;;;;;;;-6.08;72.45;103198.88;4953494;29;20024;-82
2024/01/09 03:27:33;;;;;;;11.35;4.45;;;;;;;-6.22;72.42;103179.94;4953561;28;20048;-82
2024/01/09 03:30:14;;;;;;;10.60;4.13;;;;;;;-6.23;72.11;103185.75;4976113;28;20043;-82
2024/01/09 03:32:54;;;;;;;10.77;4.38;;;;;;;-6.16;72.23;103209.94;4977422;28;20027;-81
2024/01/09 03:35:48;;;;;;;8.90;4.18;;;;;;;-6.11;72.01;103217.94;5206549;23;20059;-82
2024/01/09 03:38:15;;;;;;;10.25;4.20;;;;;;;-6.24;72.10;103190.69;4938438;29;20412;-82
2024/01/09 03:40:59;;;;;;;10.82;4.43;;;;;;;-6.28;72.25;103192.03;4939001;29;20484;-82
2024/01/09 03:43:26;;;;;;;13.00;4.78;;;;;;;-6.20;73.06;103202.84;4938930;29;20047;-82
2024/01/09 03:45:54;;;;;;;9.48;4.22;;;;;;;-6.13;72.58;103215.28;4937847;29;20464;-82
2024/01/09 03:48:38;;;;;;;8.93;4.55;;;;;;;-6.34;72.68;103175.41;4938683;29;20443;-82
2024/01/09 03:51:09;;;;;;;10.20;4.20;;;;;;;-6.18;72.67;103195.41;4938030;29;20024;-82
2024/01/09 03:53:44;;;;;;;10.90;4.30;;;;;;;-6.30;72.77;103187.56;4938575;29;20019;-82
2024/01/09 03:56:25;;;;;;;11.32;4.25;;;;;;;-6.21;72.68;103203.59;4938263;29;20027;-82
2024/01/09 03:59:00;;;;;;;11.98;4.38;;;;;;;-6.27;72.88;103183.72;4950074;29;20058;-83
2024/01/09 04:01:34;;;;;;;11.43;4.47;;;;;;;-6.41;72.99;103168.91;4957815;29;20023;-82
2024/01/09 04:04:06;;;;;;;10.73;4.30;;;;;;;-6.35;72.97;103177.03;4957844;29;20043;-82
2024/01/09 04:06:48;;;;;;;12.65;4.38;;;;;;;-6.22;72.53;103202.69;4969823;28;20443;-82
2024/01/09 04:09:32;;;;;;;10.15;4.15;;;;;;;-6.30;72.36;103190.09;4954060;29;20110;-81
2024/01/09 04:17:37;;;;;;;10.05;4.20;;;;;;;-6.38;73.06;103169.19;4916845;29;20117;-82
2024/01/09 04:20:22;;;;;;;10.48;4.00;;;;;;;-6.20;73.64;103200.31;4916331;29;20040;-82
2024/01/09 04:23:16;;;;;;;12.13;4.47;;;;;;;-6.28;73.43;103199.63;4920382;29;20103;-82
2024/01/09 04:25:58;;;;;;;10.95;4.32;;;;;;;-6.37;73.74;103183.63;4920191;28;20032;-81
2024/01/09 04:28:41;;;;;;;10.40;4.50;;;;;;;-6.30;73.92;103200.22;4949574;29;20078;-82
2024/01/09 04:31:18;;;;;;;11.05;4.50;;;;;;;-6.38;73.20;103179.31;4957784;29;20027;-82
2024/01/09 04:33:43;;;;;;;10.35;4.32;;;;;;;-6.39;73.77;103175.00;4956814;28;20031;-82
2024/01/09 04:36:21;;;;;;;13.20;4.57;;;;;;;-6.41;74.30;103181.53;4955879;28;20074;-82
2024/01/09 04:38:53;;;;;;;11.55;4.40;;;;;;;-6.39;73.80;103191.03;4957351;29;20035;-82
2024/01/09 04:41:41;;;;;;;9.70;4.32;;;;;;;-6.22;73.87;103207.75;4955563;28;20023;-82
2024/01/09 04:44:25;;;;;;;9.40;4.20;;;;;;;-6.41;74.17;103177.38;4948197;28;20373;-82
2024/01/09 04:46:50;;;;;;;12.48;4.68;;;;;;;-6.30;73.67;103196.06;4956599;29;20151;-82
2024/01/09 04:49:16;;;;;;;11.57;4.60;;;;;;;-6.26;73.72;103207.34;4966833;23;20497;-82
2024/01/09 04:54:32;;;;;;;9.80;4.32;;;;;;;-6.34;74.47;103188.94;4997550;23;20503;-82
2024/01/09 04:56:57;;;;;;;10.70;4.40;;;;;;;-6.44;73.46;103178.72;4975523;28;20114;-83
2024/01/09 04:59:22;;;;;;;12.25;4.30;;;;;;;-6.46;73.94;103180.22;4976026;28;20122;-82
2024/01/09 05:04:19;;;;;;;11.43;4.30;;;;;;;-6.32;74.35;103197.56;4898548;29;20052;-82
2024/01/09 05:06:44;;;;;;;10.43;4.40;;;;;;;-6.32;74.13;103191.63;4899788;29;20032;-82
2024/01/09 05:09:10;;;;;;;8.80;4.28;;;;;;;-6.35;73.83;103194.72;4898847;29;20446;-82
2024/01/09 05:11:35;;;;;;;11.13;4.25;;;;;;;-6.30;74.38;103207.78;4899246;29;20025;-82
2024/01/09 05:14:01;;;;;;;11.13;4.38;;;;;;;-6.33;74.25;103202.47;4899367;29;20443;-82
2024/01/09 05:16:27;;;;;;;12.48;4.50;;;;;;;-6.32;73.90;103206.78;4898633;29;20092;-82
2024/01/09 05:18:53;;;;;;;11.35;4.60;;;;;;;-6.30;74.27;103201.13;4899261;29;20084;-82
2024/01/09 05:21:18;;;;;;;12.23;4.32;;;;;;;-6.34;73.48;103208.28;4899522;29;20365;-82
2024/01/09 05:23:43;;;;;;;11.52;4.40;;;;;;;-6.33;73.84;103208.41;4898653;29;20505;-82
2024/01/09 05:26:09;;;;;;;11.75;4.75;;;;;;;-6.42;73.84;103205.94;4898950;29;20211;-82
2024/01/09 05:28:34;;;;;;;12.23;4.40;;;;;;;-6.40;74.14;103206.94;4898843;29;20134;-82
2024/01/09 05:31:01;;;;;;;11.70;4.50;;;;;;;-6.41;74.19;103211.88;4898829;29;20111;-82
2024/01/09 05:33:26;;;;;;;10.93;4.43;;;;;;;-6.44;74.22;103199.84;4899225;29;20405;-82
2024/01/09 05:35:52;;;;;;;12.95;4.95;;;;;;;-6.42;74.36;103202.50;4899091;29;20020;-82
2024/01/09 05:38:17;;;;;;;12.98;5.25;;;;;;;-6.44;74.23;103209.06;4898525;29;20045;-82
2024/01/09 05:40:42;;;;;;;12.13;4.85;;;;;;;-6.44;74.13;103197.31;4898942;29;20064;-82
2024/01/09 05:43:08;;;;;;;13.38;5.07;;;;;;;-6.48;74.26;103195.25;4898673;29;20056;-82
2024/01/09 05:45:33;;;;;;;12.25;4.90;;;;;;;-6.53;74.65;103199.88;4897833;29;20044;-82
2024/01/09 05:47:58;;;;;;;13.68;4.97;;;;;;;-6.50;74.26;103193.34;4899206;29;20497;-82
2024/01/09 05:50:24;;;;;;;13.93;5.18;;;;;;;-6.58;74.47;103182.53;4898684;29;20123;-82
2024/01/09 05:52:49;;;;;;;12.05;4.68;;;;;;;-6.53;74.67;103199.88;4897664;29;20032;-82
2024/01/09 06:01:21;;;;;;;12.35;4.75;;;;;;;-6.71;74.96;103178.84;5039867;23;20061;-81
2024/01/09 06:04:17;;;;;;;12.38;4.55;;;;;;;-6.53;75.17;103199.88;4974074;28;20027;-80
2024/01/09 06:16:01;;;;;;;12.88;4.72;;;;;;;-6.56;75.54;103198.72;4970408;28;20458;-81
2024/01/09 07:58:10;;;;;;;14.77;5.80;;;;;;;-6.74;77.43;103274.53;4973234;28;20074;-81
2024/01/09 10:19:45;;;;;;;17.05;6.30;;;;;;;-5.12;65.69;103288.34;4948733;29;20046;-84
2024/01/09 10:33:17;;;;;;;16.52;6.15;;;;;;;-4.77;63.80;103271.91;4935792;28;20071;-85
2024/01/09 10:39:15;;;;;;;18.30;6.75;;;;;;;-4.76;62.83;103258.47;4934670;29;20066;-85
2024/01/09 10:44:25;;;;;;;17.40;6.50;;;;;;;-4.83;62.32;103258.72;5125046;23;20060;-84
2024/01/09 10:47:46;;;;;;;16.38;6.13;;;;;;;-4.57;62.47;103268.56;4936148;29;20075;-84
2024/01/09 10:53:52;;;;;;;16.02;6.43;;;;;;;-4.65;62.36;103229.00;4935038;29;20451;-84
2024/01/09 11:13:20;;;;;;;16.58;6.35;;;;;;;-4.05;59.06;103225.53;5191664;23;20055;-84
2024/01/09 11:23:14;;;;;;;16.17;6.30;;;;;;;-3.73;58.44;103240.00;4873341;29;20079;-85
2024/01/09 11:26:28;;;;;;;16.70;6.03;;;;;;;-4.04;57.36;103181.66;4876723;29;20426;-84
2024/01/09 11:33:01;;;;;;;15.45;5.90;;;;;;;-3.67;57.07;103204.97;4876484;29;20134;-84
2024/01/09 11:35:48;;;;;;;15.93;6.05;;;;;;;-3.57;56.40;103197.31;4876099;29;20148;-84
2024/01/09 11:39:00;;;;;;;12.45;5.20;;;;;;;-3.46;57.72;103197.31;4876294;29;20336;-84
2024/01/09 11:41:38;;;;;;;15.05;6.05;;;;;;;-3.67;56.30;103177.03;4876623;29;20569;-83
2024/01/09 11:44:10;;;;;;;13.15;5.50;;;;;;;-3.48;56.32;103181.97;4875404;29;20045;-84
2024/01/09 11:49:31;;;;;;;13.73;5.97;;;;;;;-3.28;55.63;103187.72;4968237;23;20060;-83
2024/01/09 11:55:57;;;;;;;15.35;6.00;;;;;;;-3.22;54.28;103173.00;4938488;29;20063;-84
2024/01/09 11:58:23;;;;;;;14.05;5.18;;;;;;;-3.22;53.96;103167.00;4931683;29;20543;-83
2024/01/09 12:00:50;;;;;;;14.45;5.75;;;;;;;-3.31;54.62;103146.84;4938733;29;20118;-83
2024/01/09 12:03:30;;;;;;;14.32;5.88;;;;;;;-3.28;53.52;103137.84;4937838;29;20038;-84
2024/01/09 12:08:55;;;;;;;13.52;5.50;;;;;;;-2.92;53.70;103167.63;4938517;29;20114;-84
2024/01/09 12:11:37;;;;;;;14.35;5.85;;;;;;;-3.03;52.54;103128.69;4937621;29;20082;-84
2024/01/09 12:14:37;;;;;;;14.73;5.60;;;;;;;-2.81;52.04;103157.53;4921244;29;20040;-85
2024/01/09 12:17:23;;;;;;;15.40;5.85;;;;;;;-2.88;50.94;103140.03;4938627;29;20114;-84
2024/01/09 12:20:43;;;;;;;15.05;5.32;;;;;;;-3.00;50.14;103109.47;4938561;29;20044;-85
2024/01/09 12:28:31;;;;;;;14.27;5.20;;;;;;;-2.59;49.78;103133.75;4975148;28;20050;-85
2024/01/09 12:34:03;;;;;;;12.07;4.85;;;;;;;-2.69;48.00;103106.72;4975882;28;20090;-85
2024/01/09 13:36:42;;;;;;;11.93;4.85;;;;;;;-1.63;42.63;103079.63;4954824;29;20047;-82
2024/01/09 14:23:27;;;;;;;9.50;4.10;;;;;;;-1.64;42.50;103072.78;4968780;23;20055;-83
2024/01/09 14:33:15;;;;;;;11.48;4.47;;;;;;;-1.71;43.75;103065.47;4897111;29;20092;-83
2024/01/09 14:36:05;;;;;;;11.23;4.75;;;;;;;-1.76;42.70;103060.06;4895651;29;20037;-84
2024/01/09 15:29:43;;;;;;;11.23;4.75;;;;;;;-2.54;46.98;103025.66;4897476;29;20112;-83
2024/01/09 15:38:27;;;;;;;11.00;4.47;;;;;;;-2.60;46.42;103035.34;4918426;29;20179;-83
2024/01/09 15:41:42;;;;;;;11.88;5.03;;;;;;;-2.52;46.03;103064.78;4902267;29;20118;-83
2024/01/09 15:44:38;;;;;;;12.95;4.82;;;;;;;-2.51;46.28;103063.13;4938347;29;20031;-82
2024/01/09 16:26:05;;;;;;;14.00;4.40;;;;;;;-2.97;47.62;103060.53;3472722;23;20055;-82
2024/01/09 16:29:34;;;;;;;;;;;;;;;;;;;;;
2024/01/09 16:32:19;;;;;;;12.27;4.57;;;;;;;-3.04;48.20;103071.88;4922472;29;20031;-83
2024/01/09 16:38:05;;;;;;;10.50;4.45;;;;;;;-3.14;47.98;103052.53;4956565;29;20034;-82
2024/01/09 16:40:34;;;;;;;13.32;4.53;;;;;;;-3.17;48.63;103044.69;4957326;29;20031;-82
2024/01/09 16:52:24;;;;;;;11.43;4.53;;;;;;;-3.26;49.11;103037.22;5469727;23;20496;-82
2024/01/09 16:54:49;;;;;;;14.73;5.07;;;;;;;-3.26;49.07;103054.13;4957450;29;20034;-82
2024/01/09 16:57:14;;;;;;;12.00;4.30;;;;;;;-3.27;49.73;103044.75;4956947;29;20031;-82
2024/01/09 16:59:39;;;;;;;11.80;4.43;;;;;;;-3.29;49.54;103044.63;4955909;29;20027;-81
2024/01/09 17:02:05;;;;;;;11.07;4.32;;;;;;;-3.30;49.90;103052.13;4957027;29;20054;-82
2024/01/09 17:04:31;;;;;;;12.93;4.60;;;;;;;-3.28;50.25;103058.19;4956662;29;20055;-82
2024/01/09 17:06:56;;;;;;;9.82;4.20;;;;;;;-3.34;49.97;103056.06;4956001;29;20034;-82
2024/01/09 17:09:22;;;;;;;9.75;3.97;;;;;;;-3.38;49.67;103050.66;4956634;29;20042;-82
2024/01/09 17:11:47;;;;;;;11.70;4.38;;;;;;;-3.38;50.28;103046.47;4956763;28;20027;-82
2024/01/09 17:14:13;;;;;;;11.70;4.40;;;;;;;-3.43;50.87;103045.22;4955988;29;20042;-82
2024/01/09 17:16:47;;;;;;;10.38;4.40;;;;;;;-3.48;50.32;103052.47;4956148;29;20425;-82
2024/01/09 17:19:27;;;;;;;11.90;4.13;;;;;;;-3.38;50.42;103068.41;4956475;29;20035;-81
2024/01/09 17:21:56;;;;;;;12.93;4.55;;;;;;;-3.44;50.59;103069.72;4955883;29;20059;-82
2024/01/09 17:24:23;;;;;;;12.05;4.50;;;;;;;-3.39;51.10;103061.56;4956597;29;20043;-83
2024/01/09 17:27:00;;;;;;;;;;;;;;;-3.50;51.04;103061.63;4956517;29;20054;-81
2024/01/09 17:41:56;;;;;;;12.15;4.55;;;;;;;-3.69;52.58;103066.03;5431955;23;20075;-81
2024/01/09 17:44:55;;;;;;;13.80;4.75;;;;;;;-3.70;52.59;103076.94;4936984;29;20024;-82
2024/01/09 17:47:57;;;;;;;13.45;4.85;;;;;;;-3.85;52.28;103041.09;4936578;29;20031;-81
2024/01/09 17:50:26;;;;;;;11.93;4.70;;;;;;;-3.97;52.66;103038.44;4937040;29;20044;-82
2024/01/09 17:53:33;;;;;;;12.88;4.80;;;;;;;-3.79;52.63;103078.00;4936563;29;20041;-82
2024/01/09 17:56:00;;;;;;;11.55;4.70;;;;;;;-4.03;53.02;103033.78;4936257;29;20035;-82
2024/01/09 17:59:09;;;;;;;12.10;4.60;;;;;;;-3.81;53.04;103059.22;4936904;29;20024;-82
2024/01/09 18:01:53;;;;;;;10.15;4.25;;;;;;;-3.99;53.22;103058.63;4936651;29;20036;-82
2024/01/09 18:04:40;;;;;;;11.50;4.72;;;;;;;-3.89;53.50;103071.28;4930801;29;20035;-82
2024/01/09 18:11:17;;;;;;;14.25;4.70;;;;;;;-3.96;53.70;103079.19;4876894;29;20085;-82
2024/01/09 18:13:57;;;;;;;11.38;4.65;;;;;;;-4.02;53.82;103058.38;4904732;29;20068;-82
2024/01/09 18:26:32;;;;;;;12.10;4.57;;;;;;;-4.25;53.96;103032.06;4894418;29;20524;-82
2024/01/09 18:36:44;;;;;;;11.57;4.82;;;;;;;-4.11;54.07;103083.88;4914975;29;20039;-82
2024/01/09 18:42:44;;;;;;;;;;;;;;;;;;;;;
2024/01/09 18:45:19;;;;;;;11.93;4.75;;;;;;;-4.29;54.87;103060.47;4908938;29;20047;-82
2024/01/09 18:51:15;;;;;;;11.57;4.88;;;;;;;-4.31;54.75;103068.69;4933654;29;20042;-82
2024/01/09 18:57:24;;;;;;;10.02;4.35;;;;;;;-4.25;55.25;103081.88;4876303;29;20443;-82
2024/01/09 18:59:49;;;;;;;10.18;4.55;;;;;;;-4.39;54.99;103052.88;4875481;29;20390;-82
2024/01/09 19:02:29;;;;;;;12.52;4.90;;;;;;;-4.51;55.69;103040.97;4876607;29;20048;-82
2024/01/09 19:05:39;;;;;;;9.93;4.50;;;;;;;-4.28;55.88;103074.03;4874769;29;20029;-81
2024/01/09 19:14:11;;;;;;;12.40;4.63;;;;;;;-4.49;55.47;103056.31;4839337;29;20044;-82
2024/01/09 19:16:53;;;;;;;10.98;4.22;;;;;;;-4.51;55.99;103048.59;4839095;29;20384;-82
2024/01/09 19:19:23;;;;;;;10.85;4.45;;;;;;;-4.44;56.18;103076.97;4839985;29;20415;-82
2024/01/09 19:22:18;;;;;;;12.25;4.90;;;;;;;-4.56;56.89;103059.09;4839835;29;20498;-82
2024/01/09 19:24:57;;;;;;;11.30;4.38;;;;;;;-4.46;56.80;103075.94;4821090;29;20046;-82
2024/01/09 19:27:35;;;;;;;11.18;4.18;;;;;;;-4.56;56.93;103071.78;4821215;29;20453;-82
2024/01/09 19:36:32;;;;;;;12.68;4.82;;;;;;;-4.54;56.56;103101.56;5267597;23;20515;-82
2024/01/09 19:40:03;;;;;;;13.60;5.28;;;;;;;-4.55;57.19;103087.09;4954882;29;20043;-82
2024/01/09 19:43:21;;;;;;;13.77;5.13;;;;;;;-4.55;57.71;103083.66;4953665;29;20051;-82
2024/01/09 19:46:14;;;;;;;14.57;5.40;;;;;;;-4.60;57.66;103080.75;4920972;29;20043;-81
2024/01/09 19:52:36;;;;;;;13.88;5.05;;;;;;;-4.82;57.50;103052.75;4954353;29;20057;-82
2024/01/09 19:55:34;;;;;;;13.98;5.20;;;;;;;-4.76;57.84;103055.78;4953315;29;20034;-82
2024/01/09 19:58:07;;;;;;;13.35;4.85;;;;;;;-4.66;57.86;103082.78;4894666;29;20052;-82
2024/01/09 20:00:38;;;;;;;12.13;4.90;;;;;;;-4.83;57.75;103056.91;4894256;29;20119;-82
2024/01/09 20:03:10;;;;;;;13.85;5.32;;;;;;;-4.81;57.97;103060.47;4894619;29;20067;-81
2024/01/09 20:06:00;;;;;;;13.40;5.10;;;;;;;-4.73;58.08;103080.53;4895009;29;20045;-81
2024/01/09 20:08:51;;;;;;;11.27;4.63;;;;;;;-4.74;58.48;103083.81;4895174;29;20025;-82
2024/01/09 20:11:41;;;;;;;16.35;5.22;;;;;;;-4.76;58.59;103077.72;4896404;29;20386;-82
2024/01/09 20:14:28;;;;;;;12.45;5.05;;;;;;;-4.83;58.55;103081.38;4898104;29;20033;-82
2024/01/09 20:16:57;;;;;;;13.15;5.65;;;;;;;-4.85;58.69;103082.91;4897134;29;20060;-82
2024/01/09 20:22:59;;;;;;;14.95;4.93;;;;;;;-5.06;59.46;103043.97;4841367;29;20045;-82
2024/01/09 20:25:33;;;;;;;13.30;5.20;;;;;;;-4.98;59.34;103063.25;4826718;29;20437;-81
2024/01/09 20:28:26;;;;;;;15.10;5.38;;;;;;;-4.95;59.50;103068.56;4831452;29;20045;-82
2024/01/09 20:30:57;;;;;;;14.88;5.18;;;;;;;-5.03;59.49;103060.34;4859474;29;20106;-82
2024/01/09 20:33:41;;;;;;;14.20;5.63;;;;;;;-5.05;59.47;103059.31;4860959;29;20034;-82
2024/01/09 20:43:18;;;;;;;13.23;5.20;;;;;;;-5.17;59.71;103046.50;4879675;29;20508;-82
2024/01/09 20:46:07;;;;;;;13.00;5.35;;;;;;;-5.03;59.76;103069.56;4878225;29;20041;-81
2024/01/09 20:48:50;;;;;;;12.07;5.00;;;;;;;-5.14;59.81;103053.47;4878674;29;20387;-81
2024/01/09 20:52:01;;;;;;;16.67;5.70;;;;;;;-5.27;59.18;103042.31;4878062;29;20033;-81
2024/01/09 20:54:41;;;;;;;14.05;5.07;;;;;;;-5.21;59.56;103052.06;4937977;29;20054;-81
2024/01/09 20:57:14;;;;;;;15.63;5.47;;;;;;;-5.21;59.48;103049.53;4937289;29;20130;-82
2024/01/09 20:59:48;;;;;;;15.65;5.78;;;;;;;-5.18;59.68;103056.50;4934312;29;20040;-81
2024/01/09 21:02:30;;;;;;;14.15;5.65;;;;;;;-5.21;59.74;103054.59;4937259;29;20051;-81
2024/01/09 21:05:11;;;;;;;13.93;5.25;;;;;;;-5.33;59.36;103043.44;4936918;29;20012;-81
2024/01/09 21:07:39;;;;;;;14.23;5.05;;;;;;;-5.29;59.80;103036.22;4940414;29;20031;-82
2024/01/09 21:10:08;;;;;;;14.50;5.18;;;;;;;-5.34;60.16;103042.53;4956967;29;20023;-82
2024/01/09 21:12:45;;;;;;;14.77;5.25;;;;;;;-5.22;60.26;103057.88;4955847;29;20082;-82
2024/01/09 21:15:22;;;;;;;14.30;5.50;;;;;;;-5.21;59.98;103069.78;4956979;29;20039;-82
2024/01/09 21:17:50;;;;;;;13.15;5.28;;;;;;;-5.29;60.48;103048.00;4955902;29;20373;-82
2024/01/09 21:20:41;;;;;;;13.43;5.60;;;;;;;-5.39;60.37;103032.78;4997987;23;20143;-88
2024/01/09 21:23:16;;;;;;;12.98;5.20;;;;;;;-5.46;60.05;103034.78;4915336;29;20040;-82
2024/01/09 21:25:53;;;;;;;11.75;4.90;;;;;;;-5.45;60.06;103040.72;4916215;29;20162;-82
2024/01/09 21:28:39;;;;;;;15.52;5.75;;;;;;;-5.37;60.47;103036.31;4915360;29;20067;-82
2024/01/09 21:31:13;;;;;;;16.05;5.50;;;;;;;-5.33;60.49;103045.97;4916200;29;20548;-82
2024/01/09 21:33:41;;;;;;;12.75;4.90;;;;;;;-5.34;60.76;103041.66;4915372;29;20036;-82
2024/01/09 21:36:22;;;;;;;12.77;5.15;;;;;;;-5.47;60.62;103024.56;4916166;29;20481;-82
2024/01/09 21:38:59;;;;;;;12.68;5.10;;;;;;;-5.44;60.45;103035.81;4915551;29;20039;-82
2024/01/09 21:41:30;;;;;;;14.32;5.18;;;;;;;-5.32;60.82;103055.34;4914990;29;20519;-81
2024/01/09 21:43:58;;;;;;;14.52;5.90;;;;;;;-5.40;60.98;103036.09;4915719;29;20043;-81
2024/01/09 21:47:04;;;;;;;12.70;4.85;;;;;;;-5.34;61.04;103047.59;4915637;29;20111;-81
2024/01/09 21:50:23;;;;;;;13.48;5.28;;;;;;;-5.51;61.62;103027.56;4915915;29;20560;-81
2024/01/09 21:53:00;;;;;;;12.48;4.72;;;;;;;-5.44;60.65;103034.91;4877921;29;20029;-81
2024/01/09 21:55:28;;;;;;;11.70;4.70;;;;;;;-5.54;61.17;103018.06;4871374;29;20040;-81
2024/01/09 21:58:28;;;;;;;13.82;5.38;;;;;;;-5.53;61.28;103019.84;4892042;23;20513;-81
2024/01/09 22:14:26;;;;;;;12.25;4.78;;;;;;;-5.40;60.46;103038.63;4877818;29;20454;-82
2024/01/09 22:20:18;;;;;;;12.98;4.95;;;;;;;-5.52;60.59;103024.16;4952159;29;20053;-82
2024/01/09 22:23:17;;;;;;;14.52;5.40;;;;;;;-5.39;60.32;103053.00;5131571;23;20134;-82
2024/01/09 22:26:36;;;;;;;13.13;4.90;;;;;;;-5.36;60.32;103054.19;4936448;29;20106;-82
2024/01/09 22:29:13;;;;;;;11.80;5.10;;;;;;;-5.40;61.00;103054.69;4936248;29;20036;-82
2024/01/09 22:31:57;;;;;;;11.45;4.90;;;;;;;-5.47;60.44;103048.19;4935828;29;20020;-82
2024/01/09 22:38:00;;;;;;;15.18;5.38;;;;;;;-5.55;60.52;103039.06;4895002;29;20081;-82
2024/01/09 22:40:50;;;;;;;13.75;5.13;;;;;;;-5.43;60.87;103059.47;4896096;29;20616;-82
2024/01/09 22:43:34;;;;;;;14.65;5.40;;;;;;;-5.66;60.71;103030.53;4896027;29;20045;-82
2024/01/09 22:45:59;;;;;;;13.95;5.35;;;;;;;-5.53;60.81;103044.25;4895708;29;20032;-82
2024/01/09 22:48:49;;;;;;;12.52;5.07;;;;;;;-5.49;61.12;103057.28;4896042;29;20430;-82
2024/01/09 22:51:20;;;;;;;12.60;5.10;;;;;;;-5.66;60.46;103033.06;4894752;29;20206;-82
2024/01/09 22:53:48;;;;;;;13.50;5.20;;;;;;;-5.68;60.76;103032.03;4895623;29;20032;-82
2024/01/09 22:56:17;;;;;;;15.43;5.22;;;;;;;-5.76;60.97;103018.75;4928251;29;20062;-82
2024/01/09 23:02:37;;;;;;;14.70;5.65;;;;;;;-5.60;61.07;103047.91;4935882;29;20407;-82
2024/01/09 23:05:13;;;;;;;16.08;6.22;;;;;;;-5.72;61.18;103021.53;4935112;29;20024;-82
2024/01/09 23:11:15;;;;;;;14.05;5.47;;;;;;;-5.56;61.89;103047.41;5038648;23;20468;-81
2024/01/09 23:14:02;;;;;;;15.45;5.85;;;;;;;-5.61;61.21;103039.44;4934515;29;20034;-81
2024/01/09 23:17:24;;;;;;;14.20;5.53;;;;;;;-5.58;61.80;103033.72;4935504;29;20030;-82
2024/01/09 23:20:18;;;;;;;14.55;5.18;;;;;;;-5.62;62.58;103027.53;4934842;29;20094;-81
2024/01/09 23:26:15;;;;;;;15.27;5.80;;;;;;;-5.77;61.42;103032.16;4934860;29;20046;-81
2024/01/09 23:28:40;;;;;;;15.23;6.00;;;;;;;-5.89;62.22;103010.84;4935234;29;20056;-82
2024/01/09 23:31:47;;;;;;;14.18;5.57;;;;;;;-5.73;61.98;103038.38;4935886;29;20638;-82
2024/01/09 23:34:53;;;;;;;;;;;;;;;-5.76;61.73;103036.47;4935211;29;20119;-82
2024/01/09 23:41:39;;;;;;;14.60;5.22;;;;;;;-5.86;61.57;103036.44;4894472;29;20124;-82
2024/01/09 23:44:07;;;;;;;11.73;4.80;;;;;;;-6.08;61.82;102994.09;5092303;23;20056;-82
2024/01/09 23:46:54;;;;;;;16.02;5.78;;;;;;;-5.90;61.52;103022.59;4935955;29;20469;-82
2024/01/09 23:49:20;;;;;;;15.25;5.60;;;;;;;-6.06;61.45;103000.19;4939066;29;20024;-82
2024/01/09 23:51:48;;;;;;;15.77;6.00;;;;;;;-6.10;61.21;102994.72;4938774;29;20039;-82
2024/01/09 23:54:16;;;;;;;15.43;6.00;;;;;;;-5.95;61.48;103028.91;5011282;23;20078;-82
2024/01/09 23:56:45;;;;;;;18.30;6.20;;;;;;;-5.99;61.66;103020.97;4957874;29;20110;-83
2024/01/09 23:59:10;;;;;;;14.23;5.97;;;;;;;-5.97;61.38;103022.81;5014041;23;20106;-82
